• Join FlightAware (Why Join?)
  • Login
  • US Flag 
12:25PM EDT


 

Airport Tracker/Info


-or-


 

Live Flight TrackerFlight Track Log ✈ PDT4147 ✈ 11-May-2013 ✈ KROA - KCLT

Flight Track Log - Related Links

Times and Time Zones

All times are in EDT time to prevent confusion due to time zone crossing. See the PDT4147 flight status page for this flight to view local times or setup timezone preferences in your user account.

Time Position Orientation Groundspeed Altitude Reporting Facility
EDT Latitude Longitude Course Direction KTS MPH feet Rate Location/Type
04:18PM 37.1266 -79.9967 195° South  Level FlightAware Approximate
04:19PM 37.0677 -80.0219 195° South  Level FlightAware Approximate
04:20PM 37.0065 -80.0333 180° South  Level FlightAware Approximate
04:21PM 36.9442 -80.0316 176° South  Level FlightAware Approximate
04:22PM 36.8819 -80.0268 176° South  Level FlightAware Approximate
04:23PM 36.8197 -80.0220 176° South  Level FlightAware Approximate
04:24PM 36.7575 -80.0172 176° South  Level FlightAware Approximate
04:25PM 36.6952 -80.0153 177° South  Level FlightAware Approximate
04:26PM 36.6329 -80.0114 177° South  Level FlightAware Approximate
04:27PM 36.5706 -80.0075 177° South  Level FlightAware Approximate
04:28PM 36.5083 -80.0036 177° South  Level FlightAware Approximate
04:29PM 36.4461 -79.9995 174° South  Level FlightAware Approximate
04:30PM 36.3840 -79.9918 174° South  Level FlightAware Approximate
04:31PM 36.3220 -79.9840 174° South  Level FlightAware Approximate
04:32PM 36.2597 -79.9800 177° South  Level FlightAware Approximate
04:33PM 36.1974 -79.9763 177° South  Level FlightAware Approximate
04:34PM 36.1352 -79.9726 177° South  Level FlightAware Approximate
04:35PM 36.0729 -79.9690 177° South  Level FlightAware Approximate
04:36PM 36.0186 -79.9882 230° Southwest  Level FlightAware Approximate
04:37PM 35.9783 -80.0469 230° Southwest  Level FlightAware Approximate
04:38PM 35.9380 -80.1057 230° Southwest  Level FlightAware Approximate
04:39PM 35.8976 -80.1643 230° Southwest  Level FlightAware Approximate
04:40PM 35.8572 -80.2230 230° Southwest  Level FlightAware Approximate
04:41PM 35.8140 -80.2784 225° Southwest  Level FlightAware Approximate
04:42PM 35.7706 -80.3336 227° Southwest  Level FlightAware Approximate
04:43PM 35.7283 -80.3901 227° Southwest  Level FlightAware Approximate
04:43PM 35.9639 -80.3728 214° Southwest 202 232 6,000  Level Atlanta Center
04:43PM 35.9369 -80.3817 195° South 202 232 6,000 -120 Level Atlanta Center
04:44PM 35.6860 -80.4465 227° Southwest  Level FlightAware Approximate
04:44PM 35.8836 -80.4044 199° South 203 234 5,900  Level Atlanta Center
04:45PM 35.6420 -80.5006 228° Southwest  Level FlightAware Approximate
04:45PM 35.8300 -80.4300 201° Southwest 204 235 5,900  Level Atlanta Center
04:46PM 35.6005 -80.5578 228° Southwest  Level FlightAware Approximate
04:46PM 35.7850 -80.4575 206° Southwest 201 231 5,900  Level Atlanta Center
04:47PM 35.5589 -80.6149 228° Southwest  Level FlightAware Approximate
04:47PM 35.7342 -80.5033 216° Southwest 201 231 5,900  Level Atlanta Center
04:48PM 35.5146 -80.6684 214° Southwest  Level FlightAware Approximate
04:48PM 35.7042 -80.5481 230° Southwest 198 228 5,900  Level Atlanta Center
04:49PM 35.6725 -80.6108 238° Southwest 193 222 5,900  Level Atlanta Center
04:50PM 35.6406 -80.6656 234° Southwest 192 221 5,900  Level Atlanta Center
04:51PM 35.6067 -80.7233 234° Southwest 193 222 5,900 -60 Level Atlanta Center
04:53PM 35.5789 -80.7756 237° Southwest 192 221 5,800 -600 Descending Atlanta Center
04:54PM 35.5450 -80.8306 233° Southwest 194 223 4,800 -960 Descending Atlanta Center
04:55PM 35.5086 -80.8778 227° Southwest 194 223 3,900 -480 Descending Atlanta Center
04:56PM 35.4611 -80.9025 203° Southwest 189 217 3,900  Level Atlanta Center
04:57PM 35.4097 -80.9250 200° South 185 213 3,900 -300 Level Atlanta Center
04:58PM 35.3622 -80.9497 203° Southwest 182 209 3,300 -600 Descending Atlanta Center